createdAt,value
2019-05-01T00:01:30.360Z,1015.34
2019-05-01T00:02:30.240Z,1015.37
2019-05-01T00:03:30.579Z,1015.38
2019-05-01T00:04:30.492Z,1015.35
2019-05-01T00:06:30.419Z,1015.36
2019-05-01T00:07:30.395Z,1015.36
2019-05-01T00:08:30.479Z,1015.39
2019-05-01T00:09:30.507Z,1015.35
2019-05-01T00:10:30.787Z,1015.38
2019-05-01T00:11:30.878Z,1015.30
2019-05-01T00:12:30.628Z,1015.37
2019-05-01T00:13:30.585Z,1015.29
2019-05-01T00:14:30.667Z,1015.31
2019-05-01T00:15:30.693Z,1015.32
2019-05-01T00:16:30.838Z,1015.32
2019-05-01T00:17:31.091Z,1015.32
2019-05-01T00:18:30.794Z,1015.39
2019-05-01T00:19:30.834Z,1015.34
2019-05-01T00:20:30.861Z,1015.36
2019-05-01T00:21:30.826Z,1015.30
2019-05-01T00:22:30.927Z,1015.27
2019-05-01T00:23:30.890Z,1015.27
2019-05-01T00:24:31.376Z,1015.27
2019-05-01T00:25:31.005Z,1015.21
2019-05-01T00:26:30.983Z,1015.21
2019-05-01T00:27:31.066Z,1015.23
2019-05-01T00:28:31.096Z,1015.25
2019-05-01T00:29:31.125Z,1015.23
2019-05-01T00:30:31.157Z,1015.24
2019-05-01T00:31:31.442Z,1015.22
2019-05-01T00:32:31.284Z,1015.23
2019-05-01T00:33:31.253Z,1015.23
2019-05-01T00:34:31.233Z,1015.25
2019-05-01T00:35:31.318Z,1015.22
2019-05-01T00:36:31.298Z,1015.19
2019-05-01T00:37:31.376Z,1015.15
2019-05-01T00:38:31.720Z,1015.14
2019-05-01T00:39:31.389Z,1015.10
2019-05-01T00:40:31.603Z,1015.13
2019-05-01T00:41:31.446Z,1015.17
2019-05-01T00:42:31.529Z,1015.12
2019-05-01T00:43:31.516Z,1015.16
2019-05-01T00:44:31.902Z,1015.20
2019-05-01T00:45:31.733Z,1015.20
2019-05-01T00:46:31.612Z,1015.15
2019-05-01T00:47:31.696Z,1015.13
2019-05-01T00:48:31.718Z,1015.14
2019-05-01T00:49:31.747Z,1015.19
2019-05-01T00:50:32.028Z,1015.17
2019-05-01T00:51:31.897Z,1015.17
2019-05-01T00:53:31.875Z,1015.14
2019-05-01T00:54:31.846Z,1015.12
2019-05-01T00:55:31.890Z,1015.15
2019-05-01T00:56:32.263Z,1015.15
2019-05-01T00:57:32.003Z,1015.15
2019-05-01T01:03:32.176Z,1015.04
2019-05-01T01:04:32.530Z,1015.03
2019-05-01T01:06:32.286Z,1015.06
2019-05-01T01:07:32.404Z,1015.03
2019-05-01T01:08:32.333Z,1015.02
2019-05-01T01:09:32.362Z,1015.02
2019-05-01T01:10:32.699Z,1015.04
2019-05-01T01:11:32.486Z,1015.02
2019-05-01T01:12:32.468Z,1015.00
2019-05-01T01:13:32.478Z,1014.99
2019-05-01T01:14:32.512Z,1014.98
2019-05-01T01:15:32.648Z,1014.97
2019-05-01T01:16:32.869Z,1014.96
2019-05-01T01:17:32.906Z,1015.00
2019-05-01T01:18:32.663Z,1014.99
2019-05-01T01:19:32.669Z,1014.96
2019-05-01T01:20:32.697Z,1014.94
2019-05-01T01:21:32.803Z,1014.94
2019-05-01T01:22:32.761Z,1014.95
2019-05-01T01:23:33.202Z,1014.94
2019-05-01T01:24:33.152Z,1014.89
2019-05-01T01:25:32.842Z,1014.94
2019-05-01T01:26:32.849Z,1014.91
2019-05-01T01:27:32.926Z,1014.91
2019-05-01T01:29:32.972Z,1014.88
2019-05-01T01:30:32.957Z,1014.84
2019-05-01T01:31:33.446Z,1014.84
2019-05-01T01:33:33.156Z,1014.82
2019-05-01T01:34:33.156Z,1014.81
2019-05-01T01:35:33.109Z,1014.79
2019-05-01T01:36:33.131Z,1014.82
2019-05-01T01:37:33.173Z,1014.85
2019-05-01T01:38:33.264Z,1014.81
2019-05-01T01:39:33.340Z,1014.84
2019-05-01T01:40:33.689Z,1014.83
2019-05-01T01:41:33.344Z,1014.80
2019-05-01T01:42:33.326Z,1014.76
2019-05-01T01:45:33.459Z,1014.77
2019-05-01T01:46:33.794Z,1014.81
2019-05-01T01:47:33.472Z,1014.79
2019-05-01T01:48:33.554Z,1014.79
2019-05-01T01:49:33.529Z,1014.80
2019-05-01T01:50:33.619Z,1014.76
2019-05-01T01:51:33.793Z,1014.70
2019-05-01T01:52:33.775Z,1014.71
2019-05-01T01:53:34.008Z,1014.64
2019-05-01T01:54:33.755Z,1014.62
2019-05-01T01:55:33.816Z,1014.64
2019-05-01T01:56:33.799Z,1014.63
2019-05-01T01:57:33.772Z,1014.64
2019-05-01T01:58:33.812Z,1014.68
2019-05-01T01:59:33.850Z,1014.71
2019-05-01T02:00:34.218Z,1014.71
2019-05-01T02:01:33.987Z,1014.72
2019-05-01T02:02:33.936Z,1014.69
2019-05-01T02:03:34.014Z,1014.69
2019-05-01T02:04:33.983Z,1014.66
2019-05-01T02:05:34.087Z,1014.64
2019-05-01T02:07:34.131Z,1014.67
2019-05-01T02:08:34.409Z,1014.70
2019-05-01T02:09:34.138Z,1014.70
2019-05-01T02:10:42.660Z,1014.71
2019-05-01T02:11:34.200Z,1014.67
2019-05-01T02:12:34.233Z,1014.64
2019-05-01T02:13:34.312Z,1014.60
2019-05-01T02:14:34.292Z,1014.59
2019-05-01T02:15:34.674Z,1014.59
2019-05-01T02:16:34.415Z,1014.54
2019-05-01T02:17:34.538Z,1014.53
2019-05-01T02:19:34.498Z,1014.53
2019-05-01T02:20:34.526Z,1014.52
2019-05-01T02:21:34.509Z,1014.51
2019-05-01T02:22:34.891Z,1014.56
2019-05-01T02:23:34.569Z,1014.56
2019-05-01T02:25:34.735Z,1014.54
2019-05-01T02:26:34.668Z,1014.52
2019-05-01T02:27:34.785Z,1014.49
2019-05-01T02:28:35.073Z,1014.50
2019-05-01T02:29:35.060Z,1014.49
2019-05-01T02:30:34.783Z,1014.50
2019-05-01T02:31:34.815Z,1014.51
2019-05-01T02:32:34.994Z,1014.47
2019-05-01T02:33:34.973Z,1014.50
2019-05-01T02:34:34.975Z,1014.48
2019-05-01T02:35:35.023Z,1014.50
2019-05-01T02:36:35.412Z,1014.49
2019-05-01T02:37:35.086Z,1014.48
2019-05-01T02:38:35.141Z,1014.48
2019-05-01T02:39:35.141Z,1014.48
2019-05-01T02:40:35.233Z,1014.46
2019-05-01T02:42:35.238Z,1014.46
2019-05-01T02:43:35.611Z,1014.42
2019-05-01T02:44:35.281Z,1014.45
2019-05-01T02:45:35.450Z,1014.43
2019-05-01T02:46:35.338Z,1014.40
2019-05-01T02:47:35.766Z,1014.41
2019-05-01T02:48:35.415Z,1014.41
2019-05-01T02:49:35.504Z,1014.39
2019-05-01T02:50:35.802Z,1014.38
2019-05-01T02:51:35.513Z,1014.38
2019-05-01T02:52:35.555Z,1014.37
2019-05-01T02:54:35.663Z,1014.38
2019-05-01T02:55:35.641Z,1014.34
2019-05-01T02:56:35.644Z,1014.41
2019-05-01T02:57:35.974Z,1014.39
2019-05-01T02:58:35.685Z,1014.35
2019-05-01T02:59:35.737Z,1014.36
2019-05-01T03:00:35.755Z,1014.35
2019-05-01T03:01:46.647Z,1014.37
2019-05-01T03:02:35.809Z,1014.32
2019-05-01T03:03:35.849Z,1014.33
2019-05-01T03:04:36.207Z,1014.31
2019-05-01T03:05:35.913Z,1014.36
2019-05-01T03:06:35.942Z,1014.32
2019-05-01T03:08:35.998Z,1014.34
2019-05-01T03:09:36.043Z,1014.33
2019-05-01T03:10:36.164Z,1014.29
2019-05-01T03:11:36.406Z,1014.31
2019-05-01T03:12:36.115Z,1014.33
2019-05-01T03:13:36.146Z,1014.29
2019-05-01T03:14:36.186Z,1014.31
2019-05-01T03:15:36.222Z,1014.34
2019-05-01T03:16:36.234Z,1014.28
2019-05-01T03:17:36.272Z,1014.26
2019-05-01T03:18:36.630Z,1014.29
2019-05-01T03:19:36.365Z,1014.32
2019-05-01T03:20:36.432Z,1014.29
2019-05-01T03:21:36.399Z,1014.27
2019-05-01T03:23:36.452Z,1014.30
2019-05-01T03:24:36.430Z,1014.32
2019-05-01T03:25:36.760Z,1014.28
2019-05-01T03:26:36.550Z,1014.30
2019-05-01T03:27:36.639Z,1014.30
2019-05-01T03:28:36.619Z,1014.27
2019-05-01T03:29:36.645Z,1014.26
2019-05-01T03:30:36.643Z,1014.26
2019-05-01T03:31:36.981Z,1014.24
2019-05-01T03:32:36.676Z,1014.21
2019-05-01T03:33:36.742Z,1014.24
2019-05-01T03:34:36.773Z,1014.26
2019-05-01T03:35:36.813Z,1014.23
2019-05-01T03:36:36.849Z,1014.23
2019-05-01T03:37:37.198Z,1014.19
2019-05-01T03:38:36.912Z,1014.19
2019-05-01T03:40:37.003Z,1014.21
2019-05-01T03:42:51.818Z,1014.20
2019-05-01T03:43:51.590Z,1014.23
2019-05-01T03:44:51.613Z,1014.20
2019-05-01T03:45:51.641Z,1014.22
2019-05-01T03:46:51.629Z,1014.20
2019-05-01T03:47:51.657Z,1014.21
2019-05-01T03:48:52.031Z,1014.20
2019-05-01T03:49:51.760Z,1014.19
2019-05-01T03:50:51.761Z,1014.19
2019-05-01T03:51:51.773Z,1014.19
2019-05-01T03:52:51.803Z,1014.20
2019-05-01T03:53:51.900Z,1014.21
2019-05-01T03:54:52.219Z,1014.19
2019-05-01T03:55:51.932Z,1014.20
2019-05-01T03:56:51.930Z,1014.15
2019-05-01T03:57:51.951Z,1014.18
2019-05-01T03:58:52.042Z,1014.18
2019-05-01T03:59:52.016Z,1014.18
2019-05-01T04:00:52.397Z,1014.22
2019-05-01T04:01:52.120Z,1014.19
2019-05-01T04:02:52.150Z,1014.17
2019-05-01T04:03:52.193Z,1014.15
2019-05-01T04:04:52.216Z,1014.18
2019-05-01T04:05:52.247Z,1014.15
2019-05-01T04:06:52.237Z,1014.18
2019-05-01T04:07:52.601Z,1014.20
2019-05-01T04:08:52.286Z,1014.21
2019-05-01T04:09:52.374Z,1014.20
2019-05-01T04:10:52.346Z,1014.20
2019-05-01T04:11:52.379Z,1014.23
2019-05-01T04:12:52.456Z,1014.22
2019-05-01T04:13:52.432Z,1014.22
2019-05-01T04:14:52.514Z,1014.24
2019-05-01T04:16:52.572Z,1014.25
2019-05-01T04:17:52.560Z,1014.25
2019-05-01T04:18:52.635Z,1014.23
2019-05-01T04:19:52.613Z,1014.26
2019-05-01T04:20:53.000Z,1014.25
2019-05-01T04:21:52.672Z,1014.24
2019-05-01T04:22:52.750Z,1014.24
2019-05-01T04:23:52.794Z,1014.25
2019-05-01T04:24:52.819Z,1014.26
2019-05-01T04:25:52.802Z,1014.23
2019-05-01T04:26:52.884Z,1014.22
2019-05-01T04:27:53.204Z,1014.25
2019-05-01T04:28:52.993Z,1014.24
2019-05-01T04:29:53.013Z,1014.26
2019-05-01T04:30:53.314Z,1014.25
2019-05-01T04:31:52.978Z,1014.27
2019-05-01T04:32:53.407Z,1014.25
2019-05-01T04:33:53.093Z,1014.26
2019-05-01T04:34:53.441Z,1014.28
2019-05-01T04:35:53.099Z,1014.25
2019-05-01T04:36:53.178Z,1014.29
2019-05-01T04:37:53.229Z,1014.24
2019-05-01T04:38:53.243Z,1014.29
2019-05-01T04:39:53.224Z,1014.28
2019-05-01T04:40:53.295Z,1014.27
2019-05-01T04:41:53.626Z,1014.24
2019-05-01T04:42:53.313Z,1014.28
2019-05-01T04:43:53.339Z,1014.28
2019-05-01T04:44:53.388Z,1014.29
2019-05-01T04:45:53.398Z,1014.31
2019-05-01T04:46:53.797Z,1014.27
2019-05-01T04:47:53.463Z,1014.29
2019-05-01T04:48:53.858Z,1014.26
2019-05-01T04:49:53.587Z,1014.28
2019-05-01T04:50:53.630Z,1014.24
2019-05-01T04:51:53.652Z,1014.24
2019-05-01T04:52:53.669Z,1014.26
2019-05-01T04:53:53.649Z,1014.22
2019-05-01T04:54:54.067Z,1014.28
2019-05-01T04:55:53.693Z,1014.26
2019-05-01T04:56:53.780Z,1014.30
2019-05-01T04:57:53.810Z,1014.30
2019-05-01T04:58:53.795Z,1014.33
2019-05-01T04:59:53.868Z,1014.32
2019-05-01T05:00:54.199Z,1014.32
2019-05-01T05:01:56.735Z,1014.31
2019-05-01T05:03:04.064Z,1014.34
2019-05-01T05:03:53.938Z,1014.35
2019-05-01T05:04:53.966Z,1014.35
2019-05-01T05:05:54.041Z,1014.32
2019-05-01T05:06:54.331Z,1014.31
2019-05-01T05:07:54.079Z,1014.34
2019-05-01T05:08:54.158Z,1014.32
2019-05-01T05:09:54.166Z,1014.30
2019-05-01T05:10:54.164Z,1014.33
2019-05-01T05:11:54.221Z,1014.34
2019-05-01T05:12:54.214Z,1014.34
2019-05-01T05:13:54.544Z,1014.35
2019-05-01T05:14:54.326Z,1014.34
2019-05-01T05:15:54.341Z,1014.33
2019-05-01T05:16:54.327Z,1014.39
2019-05-01T05:17:54.355Z,1014.36
2019-05-01T05:18:54.434Z,1014.35
2019-05-01T05:19:54.411Z,1014.34
2019-05-01T05:20:54.797Z,1014.34
2019-05-01T05:21:54.519Z,1014.29
2019-05-01T05:22:54.549Z,1014.32
2019-05-01T05:23:54.535Z,1014.33
2019-05-01T05:24:54.616Z,1014.31
2019-05-01T05:25:54.591Z,1014.34
2019-05-01T05:26:54.630Z,1014.36
2019-05-01T05:27:55.054Z,1014.31
2019-05-01T05:28:54.743Z,1014.31
2019-05-01T05:29:54.778Z,1014.34
2019-05-01T05:30:54.738Z,1014.37
2019-05-01T05:31:54.780Z,1014.36
2019-05-01T05:32:54.855Z,1014.38
2019-05-01T05:33:54.884Z,1014.40
2019-05-01T05:34:55.219Z,1014.42
2019-05-01T05:35:54.898Z,1014.43
2019-05-01T05:36:54.968Z,1014.43
2019-05-01T05:37:55.007Z,1014.43
2019-05-01T05:38:55.030Z,1014.42
2019-05-01T05:39:55.074Z,1014.42
2019-05-01T05:40:55.147Z,1014.43
2019-05-01T05:41:55.424Z,1014.43
2019-05-01T05:42:55.100Z,1014.41
2019-05-01T05:43:55.153Z,1014.44
2019-05-01T05:44:55.230Z,1014.43
2019-05-01T05:45:55.249Z,1014.42
2019-05-01T05:46:55.228Z,1014.42
2019-05-01T05:47:55.248Z,1014.37
2019-05-01T05:48:55.645Z,1014.37
2019-05-01T05:49:55.342Z,1014.37
2019-05-01T05:50:55.393Z,1014.40
2019-05-01T05:51:55.379Z,1014.40
2019-05-01T05:52:55.453Z,1014.40
2019-05-01T05:53:55.478Z,1014.42
2019-05-01T05:54:55.460Z,1014.39
2019-05-01T05:55:55.839Z,1014.40
2019-05-01T05:56:55.539Z,1014.40
2019-05-01T05:57:55.614Z,1014.42
2019-05-01T05:58:55.629Z,1014.45
2019-05-01T05:59:55.658Z,1014.41
2019-05-01T06:00:55.642Z,1014.46
2019-05-01T06:01:55.677Z,1014.45
2019-05-01T06:02:56.058Z,1014.44
2019-05-01T06:03:55.732Z,1014.46
2019-05-01T06:04:55.863Z,1014.42
2019-05-01T06:05:55.847Z,1014.46
2019-05-01T06:06:55.820Z,1014.43
2019-05-01T06:07:55.849Z,1014.47
2019-05-01T06:08:55.938Z,1014.45
2019-05-01T06:09:56.262Z,1014.50
2019-05-01T06:10:58.474Z,1014.47
2019-05-01T06:11:55.972Z,1014.46
2019-05-01T06:12:55.995Z,1014.49
2019-05-01T06:13:56.997Z,1014.47
2019-05-01T06:14:56.113Z,1014.49
2019-05-01T06:15:56.085Z,1014.47
2019-05-01T06:16:56.475Z,1014.48
2019-05-01T06:17:59.034Z,1014.47
2019-05-01T06:18:56.234Z,1014.46
2019-05-01T06:19:56.217Z,1014.47
2019-05-01T06:20:57.057Z,1014.46
2019-05-01T06:21:56.273Z,1014.45
2019-05-01T06:22:56.297Z,1014.42
2019-05-01T06:23:57.741Z,1014.42
2019-05-01T06:24:56.364Z,1014.41
2019-05-01T06:26:00.295Z,1014.41
2019-05-01T06:27:56.451Z,1014.41
2019-05-01T06:29:00.653Z,1014.37
2019-05-01T06:29:56.509Z,1014.41
2019-05-01T06:30:56.888Z,1014.42
2019-05-01T06:31:58.921Z,1014.43
2019-05-01T06:32:56.650Z,1014.42
2019-05-01T06:33:56.633Z,1014.42
2019-05-01T06:34:58.539Z,1014.45
2019-05-01T06:35:56.746Z,1014.41
2019-05-01T06:36:56.720Z,1014.43
2019-05-01T06:38:00.727Z,1014.39
2019-05-01T06:38:56.797Z,1014.40
2019-05-01T06:39:56.816Z,1014.41
2019-05-01T06:40:58.055Z,1014.43
2019-05-01T06:41:56.925Z,1014.41
2019-05-01T06:42:56.898Z,1014.42
2019-05-01T06:44:02.411Z,1014.44
2019-05-01T06:44:57.029Z,1014.46
2019-05-01T06:45:59.854Z,1014.49
2019-05-01T06:46:58.285Z,1014.50
2019-05-01T06:47:57.069Z,1014.47
2019-05-01T06:48:57.106Z,1014.47
2019-05-01T06:50:01.261Z,1014.50
2019-05-01T06:50:57.507Z,1014.47
2019-05-01T06:51:57.237Z,1014.50
2019-05-01T06:52:59.740Z,1014.51
2019-05-01T06:53:57.290Z,1014.54
2019-05-01T06:54:57.268Z,1014.52
2019-05-01T06:55:57.593Z,1014.52
2019-05-01T06:56:57.413Z,1014.52
2019-05-01T06:57:57.355Z,1014.52
2019-05-01T06:58:57.516Z,1014.52
2019-05-01T06:59:57.413Z,1014.54
2019-05-01T07:00:57.475Z,1014.56
2019-05-01T07:01:58.309Z,1014.56
2019-05-01T07:02:57.853Z,1014.59
2019-05-01T07:04:03.371Z,1014.59
2019-05-01T07:04:57.564Z,1014.62
2019-05-01T07:05:57.616Z,1014.60
2019-05-01T07:06:57.650Z,1014.59
2019-05-01T07:07:57.672Z,1014.61
2019-05-01T07:08:57.701Z,1014.56
2019-05-01T07:09:58.075Z,1014.63
2019-05-01T07:10:57.800Z,1014.65
2019-05-01T07:11:57.783Z,1014.64
2019-05-01T07:12:59.844Z,1014.65
2019-05-01T07:13:57.890Z,1014.64
2019-05-01T07:14:57.870Z,1014.62
2019-05-01T07:16:00.379Z,1014.63
2019-05-01T07:16:58.021Z,1014.61
2019-05-01T07:17:58.036Z,1014.66
2019-05-01T07:19:05.406Z,1014.62
2019-05-01T07:19:58.075Z,1014.59
2019-05-01T07:20:58.114Z,1014.63
2019-05-01T07:22:01.867Z,1014.63
2019-05-01T07:22:58.424Z,1014.61
2019-05-01T07:23:58.192Z,1014.64
2019-05-01T07:24:58.891Z,1014.64
2019-05-01T07:25:58.268Z,1014.60
2019-05-01T07:26:59.843Z,1014.60
2019-05-01T07:27:58.789Z,1014.62
2019-05-01T07:28:58.449Z,1014.64
2019-05-01T07:29:58.675Z,1014.61
2019-05-01T07:30:58.412Z,1014.60
2019-05-01T07:32:01.682Z,1014.65
2019-05-01T07:32:58.472Z,1014.61
2019-05-01T07:33:58.502Z,1014.63
2019-05-01T07:35:02.177Z,1014.65
2019-05-01T07:35:58.584Z,1014.61
2019-05-01T07:36:58.606Z,1014.63
2019-05-01T07:38:02.232Z,1014.62
2019-05-01T07:38:58.602Z,1014.64
2019-05-01T07:39:58.631Z,1014.65
2019-05-01T07:41:02.879Z,1014.65
2019-05-01T07:41:58.740Z,1014.64
2019-05-01T07:42:59.065Z,1014.62
2019-05-01T07:43:59.620Z,1014.62
2019-05-01T07:44:58.833Z,1014.65
2019-05-01T07:45:58.815Z,1014.65
2019-05-01T07:46:58.887Z,1014.64
2019-05-01T07:48:01.102Z,1014.68
2019-05-01T07:48:59.252Z,1014.65
2019-05-01T07:49:58.985Z,1014.66
2019-05-01T07:51:01.852Z,1014.69
2019-05-01T07:52:01.682Z,1014.69
2019-05-01T07:52:59.070Z,1014.71
2019-05-01T07:54:03.435Z,1014.69
2019-05-01T07:55:59.465Z,1014.66
2019-05-01T07:57:03.236Z,1014.69
2019-05-01T07:57:59.224Z,1014.68
2019-05-01T08:00:59.353Z,1014.68
2019-05-01T08:01:59.299Z,1014.66
2019-05-01T08:03:02.579Z,1014.65
2019-05-01T08:03:59.352Z,1014.65
2019-05-01T08:04:59.400Z,1014.66
2019-05-01T08:05:59.496Z,1014.65
2019-05-01T08:06:59.457Z,1014.67
2019-05-01T08:08:02.897Z,1014.63
2019-05-01T08:08:59.559Z,1014.61
2019-05-01T08:09:59.600Z,1014.64
2019-05-01T08:11:59.658Z,1014.65
2019-05-01T08:13:00.514Z,1014.61
2019-05-01T08:14:07.279Z,1014.62
2019-05-01T08:14:59.996Z,1014.65
2019-05-01T08:16:02.104Z,1014.68
2019-05-01T08:17:59.947Z,1014.67
2019-05-01T08:19:04.092Z,1014.69
2019-05-01T08:19:59.848Z,1014.64
2019-05-01T08:20:59.949Z,1014.65
2019-05-01T08:22:01.761Z,1014.63
2019-05-01T08:22:59.944Z,1014.66
2019-05-01T08:23:59.971Z,1014.65
2019-05-01T08:25:00.079Z,1014.65
2019-05-01T08:26:04.058Z,1014.63
2019-05-01T08:27:00.119Z,1014.62
2019-05-01T08:28:00.162Z,1014.65
2019-05-01T08:29:03.009Z,1014.68
2019-05-01T08:30:00.246Z,1014.67
2019-05-01T08:31:00.180Z,1014.68
2019-05-01T08:32:03.424Z,1014.69
2019-05-01T08:33:00.313Z,1014.69
2019-05-01T08:34:00.323Z,1014.70
2019-05-01T08:35:02.434Z,1014.68
2019-05-01T08:36:00.375Z,1014.72
2019-05-01T08:37:00.467Z,1014.70
2019-05-01T08:39:04.662Z,1014.75
2019-05-01T08:40:00.519Z,1014.81
2019-05-01T08:41:00.548Z,1014.77
2019-05-01T08:43:00.935Z,1014.79
2019-05-01T08:44:00.646Z,1014.76
2019-05-01T08:45:05.349Z,1014.80
2019-05-01T08:46:00.662Z,1014.83
2019-05-01T08:47:00.746Z,1014.83
2019-05-01T08:48:01.526Z,1014.82
2019-05-01T08:49:00.782Z,1014.84
2019-05-01T08:50:00.813Z,1014.82
2019-05-01T08:51:00.824Z,1014.86
2019-05-01T08:52:04.752Z,1014.82
2019-05-01T08:53:01.028Z,1014.85
2019-05-01T08:54:00.939Z,1014.81
2019-05-01T08:55:04.197Z,1014.78
2019-05-01T08:56:01.324Z,1014.76
2019-05-01T08:57:00.990Z,1014.80
2019-05-01T08:58:01.180Z,1014.81
2019-05-01T08:59:01.047Z,1014.80
2019-05-01T09:00:01.664Z,1014.78
2019-05-01T09:01:01.166Z,1014.78
2019-05-01T09:02:09.349Z,1014.76
2019-05-01T09:03:08.162Z,1014.77
2019-05-01T09:04:12.272Z,1014.75
2019-05-01T09:05:02.742Z,1014.74
2019-05-01T09:06:01.337Z,1014.76
2019-05-01T09:07:01.294Z,1014.78
2019-05-01T09:08:01.688Z,1014.78
2019-05-01T09:09:02.965Z,1014.71
2019-05-01T09:11:02.276Z,1014.79
2019-05-01T09:12:01.465Z,1014.78
2019-05-01T09:13:01.696Z,1014.74
2019-05-01T09:14:01.581Z,1014.75
2019-05-01T09:16:02.355Z,1014.71
2019-05-01T09:17:01.688Z,1014.74
2019-05-01T09:18:01.767Z,1014.75
2019-05-01T09:19:01.812Z,1014.70
2019-05-01T09:20:01.872Z,1014.72
2019-05-01T09:22:02.006Z,1014.69
2019-05-01T09:23:01.982Z,1014.67
2019-05-01T09:24:01.919Z,1014.69
2019-05-01T09:25:02.052Z,1014.65
2019-05-01T09:26:06.222Z,1014.69
2019-05-01T09:27:01.922Z,1014.66
2019-05-01T09:28:04.112Z,1014.67
2019-05-01T09:29:02.033Z,1014.65
2019-05-01T09:30:04.472Z,1014.62
2019-05-01T09:31:03.333Z,1014.64
2019-05-01T09:32:05.031Z,1014.60
2019-05-01T09:33:02.552Z,1014.62
2019-05-01T09:34:02.136Z,1014.64
2019-05-01T09:35:14.625Z,1014.63
2019-05-01T09:36:02.327Z,1014.60
2019-05-01T09:37:02.287Z,1014.57
2019-05-01T09:38:02.384Z,1014.58
2019-05-01T09:39:02.350Z,1014.62
2019-05-01T09:40:04.322Z,1014.57
2019-05-01T09:41:02.363Z,1014.60
2019-05-01T09:42:02.437Z,1014.59
2019-05-01T09:43:02.436Z,1014.59
2019-05-01T09:44:05.836Z,1014.62
2019-05-01T09:45:02.489Z,1014.59
2019-05-01T09:46:02.563Z,1014.57
2019-05-01T09:47:02.544Z,1014.62
2019-05-01T09:48:02.579Z,1014.59
2019-05-01T09:49:02.657Z,1014.62
2019-05-01T09:50:02.651Z,1014.60
2019-05-01T09:51:05.541Z,1014.61
2019-05-01T09:52:02.757Z,1014.58
2019-05-01T09:53:03.099Z,1014.59
2019-05-01T09:54:05.754Z,1014.58
2019-05-01T09:55:02.792Z,1014.62
2019-05-01T09:56:03.266Z,1014.62
2019-05-01T09:57:02.913Z,1014.60
2019-05-01T09:58:03.039Z,1014.62
2019-05-01T09:59:02.969Z,1014.63
2019-05-01T10:00:03.015Z,1014.63
2019-05-01T10:01:03.043Z,1014.63
2019-05-01T10:02:07.701Z,1014.62
2019-05-01T10:03:03.101Z,1014.60
2019-05-01T10:04:05.538Z,1014.61
2019-05-01T10:05:06.688Z,1014.59
2019-05-01T10:06:03.194Z,1014.60
2019-05-01T10:07:03.176Z,1014.57
2019-05-01T10:08:04.158Z,1014.58
2019-05-01T10:09:03.242Z,1014.60
2019-05-01T10:10:03.322Z,1014.56
2019-05-01T10:11:05.147Z,1014.54
2019-05-01T10:12:03.390Z,1014.52
2019-05-01T10:13:03.415Z,1014.54
2019-05-01T10:14:04.224Z,1014.45
2019-05-01T10:16:03.513Z,1014.44
2019-05-01T10:17:03.800Z,1014.43
2019-05-01T10:18:03.577Z,1014.42
2019-05-01T10:19:03.577Z,1014.42
2019-05-01T10:20:03.720Z,1014.42
2019-05-01T10:21:03.665Z,1014.39
2019-05-01T10:22:03.842Z,1014.34
2019-05-01T10:23:07.885Z,1014.33
2019-05-01T10:24:04.015Z,1014.31
2019-05-01T10:25:03.798Z,1014.30
2019-05-01T10:26:03.831Z,1014.31
2019-05-01T10:27:03.862Z,1014.28
2019-05-01T10:28:07.219Z,1014.34
2019-05-01T10:29:03.930Z,1014.32
2019-05-01T10:30:03.913Z,1014.34
2019-05-01T10:31:06.985Z,1014.31
2019-05-01T10:32:04.014Z,1014.35
2019-05-01T10:33:04.058Z,1014.35
2019-05-01T10:34:07.643Z,1014.36
2019-05-01T10:35:04.064Z,1014.30
2019-05-01T10:36:04.138Z,1014.28
2019-05-01T10:37:04.470Z,1014.29
2019-05-01T10:38:04.664Z,1014.23
2019-05-01T10:39:04.192Z,1014.26
2019-05-01T10:40:04.231Z,1014.22
2019-05-01T10:41:08.987Z,1014.22
2019-05-01T10:42:04.341Z,1014.19
2019-05-01T10:43:04.677Z,1014.26
2019-05-01T10:44:04.354Z,1014.11
2019-05-01T10:45:04.439Z,1014.16
2019-05-01T10:46:04.474Z,1014.19
2019-05-01T10:47:04.445Z,1014.15
2019-05-01T10:48:04.528Z,1014.09
2019-05-01T10:49:04.863Z,1014.08
2019-05-01T10:50:04.589Z,1014.09
2019-05-01T10:51:04.620Z,1014.03
2019-05-01T10:52:14.059Z,1014.05
2019-05-01T10:53:04.629Z,1014.08
2019-05-01T10:54:04.719Z,1014.02
2019-05-01T10:55:05.054Z,1014.01
2019-05-01T10:56:04.793Z,1014.00
2019-05-01T10:57:04.832Z,1014.02
2019-05-01T10:58:04.803Z,1014.03
2019-05-01T10:59:04.835Z,1014.04
2019-05-01T11:00:04.917Z,1014.00
2019-05-01T11:01:04.939Z,1014.00
2019-05-01T11:02:04.982Z,1013.99
2019-05-01T11:03:04.950Z,1014.00
2019-05-01T11:04:04.982Z,1013.96
2019-05-01T11:05:05.017Z,1013.94
2019-05-01T11:06:05.097Z,1013.95
2019-05-01T11:07:05.138Z,1013.93
2019-05-01T11:08:05.111Z,1013.92
2019-05-01T11:09:05.294Z,1013.90
2019-05-01T11:10:05.328Z,1013.90
2019-05-01T11:11:05.265Z,1013.84
2019-05-01T11:13:07.674Z,1013.89
2019-05-01T11:14:05.658Z,1013.87
2019-05-01T11:15:05.389Z,1013.87
2019-05-01T11:16:05.372Z,1013.87
2019-05-01T11:17:05.457Z,1013.86
2019-05-01T11:18:05.495Z,1013.85
2019-05-01T11:19:05.482Z,1013.85
2019-05-01T11:20:05.863Z,1013.79
2019-05-01T11:21:05.609Z,1013.80
2019-05-01T11:22:05.637Z,1013.82
2019-05-01T11:23:05.597Z,1013.84
2019-05-01T11:24:05.710Z,1013.81
2019-05-01T11:25:05.655Z,1013.82
2019-05-01T11:26:05.694Z,1013.82
2019-05-01T11:27:05.785Z,1013.82
2019-05-01T11:28:05.810Z,1013.83
2019-05-01T11:29:05.794Z,1013.78
2019-05-01T11:30:05.941Z,1013.80
2019-05-01T11:31:05.859Z,1013.75
2019-05-01T11:32:05.891Z,1013.75
2019-05-01T11:34:05.944Z,1013.76
2019-05-01T11:35:06.034Z,1013.78
2019-05-01T11:36:09.787Z,1013.73
2019-05-01T11:37:06.118Z,1013.72
2019-05-01T11:38:06.384Z,1013.76
2019-05-01T11:39:06.115Z,1013.72
2019-05-01T11:40:06.212Z,1013.71
2019-05-01T11:41:06.225Z,1013.71
2019-05-01T11:42:06.267Z,1013.72
2019-05-01T11:43:06.308Z,1013.70
2019-05-01T11:44:06.439Z,1013.73
2019-05-01T11:45:06.655Z,1013.71
2019-05-01T11:46:06.336Z,1013.71
2019-05-01T11:47:06.424Z,1013.70
2019-05-01T11:48:06.420Z,1013.69
2019-05-01T11:49:06.484Z,1013.68
2019-05-01T11:50:06.519Z,1013.70
2019-05-01T11:51:06.504Z,1013.70
2019-05-01T11:52:06.582Z,1013.67
2019-05-01T11:53:06.619Z,1013.69
2019-05-01T11:54:06.620Z,1013.72
2019-05-01T11:55:06.693Z,1013.70
2019-05-01T11:56:06.682Z,1013.70
2019-05-01T11:58:07.113Z,1013.71
2019-05-01T11:59:06.763Z,1013.72
2019-05-01T12:00:06.945Z,1013.72
2019-05-01T12:01:06.880Z,1013.72
2019-05-01T12:02:06.866Z,1013.67
2019-05-01T12:03:06.940Z,1013.63
2019-05-01T12:04:06.977Z,1013.65
2019-05-01T12:05:07.352Z,1013.63
2019-05-01T12:06:07.002Z,1013.60
2019-05-01T12:07:07.025Z,1013.60
2019-05-01T12:08:07.103Z,1013.60
2019-05-01T12:10:07.123Z,1013.61
2019-05-01T12:11:07.211Z,1013.58
2019-05-01T12:12:07.259Z,1013.57
2019-05-01T12:13:07.272Z,1013.57
2019-05-01T12:14:07.296Z,1013.58
2019-05-01T12:15:07.330Z,1013.55
2019-05-01T12:16:07.310Z,1013.54
2019-05-01T12:17:07.696Z,1013.55
2019-05-01T12:18:07.386Z,1013.59
2019-05-01T12:19:07.458Z,1013.56
2019-05-01T12:20:07.452Z,1013.58
2019-05-01T12:21:07.544Z,1013.56
2019-05-01T12:22:07.566Z,1013.52
2019-05-01T12:23:07.604Z,1013.60
2019-05-01T12:24:07.629Z,1013.56
2019-05-01T12:25:07.675Z,1013.54
2019-05-01T12:26:07.687Z,1013.53
2019-05-01T12:27:07.732Z,1013.51
2019-05-01T12:28:07.715Z,1013.52
2019-05-01T12:29:08.097Z,1013.52
2019-05-01T12:30:07.824Z,1013.51
2019-05-01T12:31:07.871Z,1013.46
2019-05-01T12:32:07.848Z,1013.47
2019-05-01T12:33:07.924Z,1013.51
2019-05-01T12:34:07.916Z,1013.45
2019-05-01T12:35:07.989Z,1013.47
2019-05-01T12:36:08.027Z,1013.45
2019-05-01T12:37:08.057Z,1013.39
2019-05-01T12:38:08.038Z,1013.42
2019-05-01T12:39:08.068Z,1013.37
2019-05-01T12:40:08.149Z,1013.38
2019-05-01T12:41:08.227Z,1013.39
2019-05-01T12:42:08.171Z,1013.38
2019-05-01T12:43:08.200Z,1013.36
2019-05-01T12:44:08.251Z,1013.34
2019-05-01T12:45:08.270Z,1013.31